Terminal Aerodrome Forecast
Issued by NWS

Home | Current Version | Previous Version | Text Only | Print | Product List | Glossary On
Versions: 1 2 3 4 5 6 7 8 9 10 11 12 13 14 15 16 17 18 19 20 21 22 23 24 25 26 27 28 29 30 31 32 33 34 35 36 37 38 39 40 41
000
FTUS45 KBOU 312320
TAFAPA
TAF
KAPA 312320Z 0100/0124 01013KT P6SM VCSH SCT080 BKN120
     FM010200 06008KT P6SM SCT080 SCT120
     FM010400 15007KT P6SM FEW120
     FM010600 19009KT P6SM SKC
     FM011400 VRB05KT P6SM FEW090 SCT120
     FM011900 04006KT P6SM FEW090 SCT120=

USA.gov is the U.S. government's official web portal to all federal, state and local government web resources and services.